Time;durP1;ratioP1;P1;durP2;ratioP2;P2;SDS_P1;SDS_P2;PMS_P1;PMS_P2;Temp;Humidity;BMP_temperature;BMP_pressure;BME280_temperature;BME280_humidity;BME280_pressure;Samples;Min_cycle;Max_cycle;Signal;HPM_P1;HPM_P2
2022/05/19 00:01:15;;;;;;;8.68;2.63;;;26.40;48.60;;;;;;5144032;27;19899;-40
2022/05/19 00:03:42;;;;;;;5.68;2.35;;;26.40;48.70;;;;;;5143988;27;20072;-40
2022/05/19 00:06:09;;;;;;;5.85;2.63;;;26.40;48.80;;;;;;5144370;27;20019;-41
2022/05/19 00:08:34;;;;;;;10.68;2.97;;;26.30;48.90;;;;;;5143770;27;20106;-42
2022/05/19 00:11:02;;;;;;;6.97;2.50;;;26.30;48.80;;;;;;5143819;27;20029;-39
2022/05/19 00:13:29;;;;;;;6.72;2.60;;;26.30;49.10;;;;;;5142234;27;20010;-42
2022/05/19 00:15:56;;;;;;;6.93;2.80;;;26.30;49.20;;;;;;5143241;27;20027;-41
2022/05/19 00:18:22;;;;;;;4.88;2.70;;;26.30;49.30;;;;;;5142629;27;20015;-42
2022/05/19 00:20:48;;;;;;;5.88;2.58;;;26.30;49.30;;;;;;5142801;27;20043;-42
2022/05/19 00:23:15;;;;;;;4.35;2.30;;;26.30;49.30;;;;;;5142993;27;20094;-42
2022/05/19 00:25:41;;;;;;;4.22;2.42;;;26.30;49.40;;;;;;5141301;27;20019;-40
2022/05/19 00:28:07;;;;;;;4.18;2.38;;;26.30;49.30;;;;;;5141467;27;20106;-43
2022/05/19 00:30:33;;;;;;;6.18;2.97;;;26.30;49.50;;;;;;5141316;27;20023;-40
2022/05/19 00:32:59;;;;;;;6.10;2.65;;;26.30;49.60;;;;;;5140316;27;20068;-42
2022/05/19 00:35:25;;;;;;;4.43;2.67;;;26.30;49.50;;;;;;5141099;27;20054;-40
2022/05/19 00:37:51;;;;;;;6.47;2.60;;;26.20;49.70;;;;;;5140327;27;20008;-40
2022/05/19 00:40:18;;;;;;;4.97;2.85;;;26.20;49.70;;;;;;5139965;27;20069;-41
2022/05/19 00:42:44;;;;;;;6.45;2.67;;;26.20;49.70;;;;;;5139398;27;20396;-40
2022/05/19 00:45:24;;;;;;;6.55;2.50;;;26.20;49.70;;;;;;5139601;27;20012;-38
2022/05/19 00:48:00;;;;;;;4.03;2.30;;;26.20;49.70;;;;;;5139307;27;20038;-40
2022/05/19 00:50:49;;;;;;;7.18;2.90;;;26.20;49.80;;;;;;5137619;27;20492;-42
2022/05/19 00:53:24;;;;;;;7.07;2.47;;;26.20;49.90;;;;;;5139189;27;20045;-41
2022/05/19 00:55:51;;;;;;;5.97;2.70;;;26.20;49.80;;;;;;5137589;27;20039;-39
2022/05/19 00:58:31;;;;;;;5.32;2.80;;;26.30;49.90;;;;;;5138568;27;20023;-39
2022/05/19 01:00:57;;;;;;;6.50;2.90;;;26.20;49.90;;;;;;5139433;27;20021;-42
2022/05/19 01:03:23;;;;;;;7.45;2.42;;;26.20;49.90;;;;;;5137184;27;20047;-40
2022/05/19 01:05:54;;;;;;;7.90;2.50;;;26.20;49.90;;;;;;5139479;27;20489;-40
2022/05/19 01:08:34;;;;;;;5.95;2.70;;;26.20;50.10;;;;;;5139509;27;20024;-40
2022/05/19 01:11:05;;;;;;;4.55;2.67;;;26.20;50.30;;;;;;5138545;27;20030;-40
2022/05/19 01:13:31;;;;;;;5.88;2.58;;;26.20;50.50;;;;;;5137905;27;20022;-40
2022/05/19 01:15:57;;;;;;;6.45;2.53;;;26.20;50.40;;;;;;5139521;27;20076;-39
2022/05/19 01:18:24;;;;;;;3.67;2.42;;;26.20;50.50;;;;;;5139821;27;20026;-42
2022/05/19 01:20:49;;;;;;;4.80;2.22;;;26.20;50.50;;;;;;5140521;27;20031;-39
2022/05/19 01:23:24;;;;;;;4.75;2.30;;;26.30;50.30;;;;;;5140115;27;20063;-42
2022/05/19 01:26:16;;;;;;;3.03;2.10;;;26.20;49.70;;;;;;5139114;28;20434;-40
2022/05/19 01:28:43;;;;;;;6.63;2.38;;;26.30;49.90;;;;;;5135721;28;20088;-40
2022/05/19 01:31:36;;;;;;;5.57;2.45;;;26.30;50.20;;;;;;5120886;28;20047;-41
2022/05/19 01:34:03;;;;;;;3.13;2.20;;;26.20;50.30;;;;;;5139469;27;20038;-41
2022/05/19 01:36:29;;;;;;;3.58;2.25;;;26.30;50.60;;;;;;5139271;27;20068;-43
2022/05/19 01:39:02;;;;;;;4.43;2.40;;;26.20;50.60;;;;;;5139638;28;20059;-40
2022/05/19 01:41:54;;;;;;;7.60;2.50;;;26.30;50.80;;;;;;5141042;27;20027;-39
2022/05/19 01:44:34;;;;;;;6.55;2.38;;;26.20;50.50;;;;;;5143627;27;20438;-39
2022/05/19 01:47:18;;;;;;;5.25;2.33;;;26.20;50.70;;;;;;5142715;27;20080;-38
2022/05/19 01:49:55;;;;;;;6.13;2.28;;;26.30;50.90;;;;;;5140858;27;20047;-39
2022/05/19 01:53:00;;;;;;;3.70;2.35;;;26.20;51.10;;;;;;5140842;27;20499;-40
2022/05/19 01:55:33;;;;;;;4.63;2.53;;;26.20;51.40;;;;;;5102904;27;20039;-40
2022/05/19 01:58:13;;;;;;;6.13;2.53;;;26.20;51.50;;;;;;5140125;27;20022;-39
2022/05/19 02:00:39;;;;;;;5.55;2.55;;;26.20;51.50;;;;;;5139784;27;20015;-41
2022/05/19 02:03:11;;;;;;;4.95;2.45;;;26.20;51.40;;;;;;5139676;27;20008;-39
2022/05/19 02:05:51;;;;;;;6.00;2.40;;;26.20;51.60;;;;;;5139874;27;20098;-39
2022/05/19 02:08:43;;;;;;;4.82;2.40;;;26.20;51.70;;;;;;5141043;27;20056;-40
2022/05/19 02:11:13;;;;;;;5.60;2.50;;;26.20;51.60;;;;;;5140281;27;20503;-41
2022/05/19 02:13:39;;;;;;;4.43;2.75;;;26.20;51.80;;;;;;5142653;27;20035;-39
2022/05/19 02:16:07;;;;;;;7.15;2.55;;;26.20;51.60;;;;;;5141492;27;20028;-39
2022/05/19 02:18:33;;;;;;;5.03;2.45;;;26.20;51.70;;;;;;5142157;27;20007;-40
2022/05/19 02:21:00;;;;;;;6.28;2.40;;;26.10;51.80;;;;;;5142936;27;20039;-40
2022/05/19 02:23:26;;;;;;;5.28;2.40;;;26.20;51.80;;;;;;5142841;27;20008;-39
2022/05/19 02:25:55;;;;;;;3.33;2.22;;;26.20;51.90;;;;;;5143347;27;20520;-39
2022/05/19 02:28:32;;;;;;;5.90;2.75;;;26.20;52.10;;;;;;5144016;27;20038;-39
2022/05/19 02:30:59;;;;;;;4.47;2.30;;;26.20;52.10;;;;;;5142321;27;20003;-39
2022/05/19 02:33:25;;;;;;;4.82;2.50;;;26.20;52.30;;;;;;5143247;27;20105;-41
2022/05/19 02:35:51;;;;;;;5.13;2.70;;;26.20;52.50;;;;;;5142180;27;20019;-40
2022/05/19 02:38:20;;;;;;;5.78;2.63;;;26.20;52.70;;;;;;5144037;27;20018;-40
2022/05/19 02:40:46;;;;;;;5.63;2.70;;;26.20;52.90;;;;;;5143713;27;20008;-39
2022/05/19 02:43:12;;;;;;;5.05;2.90;;;26.20;52.90;;;;;;5143115;27;20037;-40
2022/05/19 02:45:38;;;;;;;9.18;3.00;;;26.20;53.10;;;;;;5142681;27;20048;-40
2022/05/19 02:48:05;;;;;;;3.38;2.65;;;26.20;53.30;;;;;;5143029;27;20034;-43
2022/05/19 02:50:30;;;;;;;6.07;2.85;;;26.10;53.30;;;;;;5141982;27;20033;-41
2022/05/19 02:52:57;;;;;;;6.57;2.78;;;26.10;53.40;;;;;;5142336;27;20524;-41
2022/05/19 02:55:23;;;;;;;5.00;2.55;;;26.10;53.30;;;;;;5142674;27;20084;-39
2022/05/19 02:57:49;;;;;;;4.90;2.42;;;26.10;53.40;;;;;;5143140;27;20017;-40
2022/05/19 03:00:17;;;;;;;4.82;2.42;;;26.10;53.10;;;;;;5142869;27;20063;-40
2022/05/19 03:02:44;;;;;;;6.80;2.72;;;26.10;53.20;;;;;;5141788;27;20043;-39
2022/05/19 03:05:12;;;;;;;7.55;3.55;;;26.10;53.40;;;;;;5143178;27;20011;-42
2022/05/19 03:07:37;;;;;;;6.57;2.55;;;26.10;53.30;;;;;;5141985;27;20017;-41
2022/05/19 03:10:04;;;;;;;5.10;2.50;;;26.10;53.40;;;;;;5142307;27;20090;-40
2022/05/19 03:12:30;;;;;;;5.30;2.20;;;26.00;53.50;;;;;;5140891;27;20015;-41
2022/05/19 03:14:56;;;;;;;5.22;2.70;;;26.00;53.60;;;;;;5139827;27;20026;-40
2022/05/19 03:17:22;;;;;;;7.78;2.20;;;26.00;53.60;;;;;;5140674;27;20044;-40
2022/05/19 03:19:50;;;;;;;5.03;2.30;;;26.00;53.70;;;;;;5141302;27;20161;-42
2022/05/19 03:22:18;;;;;;;6.78;3.00;;;26.00;53.60;;;;;;5140155;27;20028;-39
2022/05/19 03:24:45;;;;;;;7.10;2.00;;;26.00;53.40;;;;;;5142869;27;20043;-42
2022/05/19 03:27:11;;;;;;;4.75;2.30;;;26.00;53.30;;;;;;5142638;27;20019;-42
2022/05/19 03:29:38;;;;;;;4.90;2.05;;;26.00;53.40;;;;;;5141796;27;20026;-42
2022/05/19 03:32:05;;;;;;;4.25;2.30;;;26.10;53.20;;;;;;5141851;27;20049;-40
2022/05/19 03:34:31;;;;;;;5.70;2.22;;;26.00;53.30;;;;;;5140248;27;20088;-40
2022/05/19 03:36:57;;;;;;;5.75;2.30;;;26.10;53.30;;;;;;5141581;27;20407;-40
2022/05/19 03:39:22;;;;;;;3.10;1.75;;;26.10;53.20;;;;;;5140002;27;20473;-43
2022/05/19 03:41:48;;;;;;;5.82;2.38;;;26.00;53.40;;;;;;5141430;27;20076;-40
2022/05/19 03:44:15;;;;;;;7.05;2.20;;;26.10;53.60;;;;;;5141336;27;20030;-41
2022/05/19 03:46:40;;;;;;;5.90;2.50;;;26.00;53.80;;;;;;5140922;27;20023;-41
2022/05/19 03:49:08;;;;;;;5.00;2.33;;;26.00;54.10;;;;;;5139979;27;20042;-40
2022/05/19 03:51:34;;;;;;;7.93;2.33;;;26.00;54.00;;;;;;5139072;27;20015;-40
2022/05/19 03:54:01;;;;;;;4.50;2.33;;;25.90;54.20;;;;;;5137991;27;20061;-42
2022/05/19 03:56:26;;;;;;;5.55;2.25;;;25.90;54.30;;;;;;5140322;27;20026;-39
2022/05/19 03:58:52;;;;;;;4.03;2.28;;;25.90;54.30;;;;;;5139716;27;20019;-39
2022/05/19 04:01:19;;;;;;;3.95;2.00;;;25.90;54.50;;;;;;5140337;27;20016;-41
2022/05/19 04:03:46;;;;;;;4.88;2.05;;;25.80;54.40;;;;;;5139508;27;20022;-42
2022/05/19 04:06:12;;;;;;;5.95;2.25;;;25.90;54.40;;;;;;5141230;27;20477;-39
2022/05/19 04:08:38;;;;;;;6.18;2.10;;;25.90;54.20;;;;;;5140445;27;20020;-40
2022/05/19 04:11:04;;;;;;;3.08;2.15;;;25.90;54.10;;;;;;5140154;27;20023;-40
2022/05/19 04:13:31;;;;;;;5.68;2.20;;;25.90;54.10;;;;;;5141339;27;20094;-42
2022/05/19 04:15:57;;;;;;;5.07;2.50;;;25.90;54.20;;;;;;5140572;27;20019;-41
2022/05/19 04:18:22;;;;;;;7.47;2.03;;;25.90;54.20;;;;;;5140835;27;20030;-42
2022/05/19 04:20:49;;;;;;;3.53;2.00;;;25.80;54.10;;;;;;5139373;27;20037;-39
2022/05/19 04:23:16;;;;;;;4.72;2.67;;;25.80;54.40;;;;;;5137928;27;20019;-39
2022/05/19 04:25:41;;;;;;;3.53;1.80;;;25.70;54.40;;;;;;5137973;27;20021;-38
2022/05/19 04:28:07;;;;;;;4.78;1.98;;;25.60;54.60;;;;;;5120974;27;20106;-37
2022/05/19 04:30:33;;;;;;;2.90;1.90;;;25.60;54.80;;;;;;5139554;27;20019;-37
2022/05/19 04:33:00;;;;;;;3.90;1.90;;;25.60;54.80;;;;;;5137603;27;20438;-38
2022/05/19 04:35:26;;;;;;;6.35;2.30;;;25.60;54.70;;;;;;5139442;27;20050;-40
2022/05/19 04:37:57;;;;;;;3.88;1.90;;;25.60;54.50;;;;;;5140008;27;20035;-40
2022/05/19 04:40:23;;;;;;;3.42;2.22;;;25.70;54.30;;;;;;5122987;27;20036;-40
2022/05/19 04:42:49;;;;;;;3.58;2.10;;;25.70;54.10;;;;;;5140214;27;20023;-38
2022/05/19 04:45:16;;;;;;;3.80;1.90;;;25.70;54.10;;;;;;5140608;27;20019;-38
2022/05/19 04:47:42;;;;;;;4.22;2.00;;;25.80;54.10;;;;;;5140187;27;20019;-41
2022/05/19 04:50:08;;;;;;;4.88;1.90;;;25.80;53.90;;;;;;5139425;27;20469;-39
2022/05/19 04:52:35;;;;;;;4.90;2.47;;;25.80;54.00;;;;;;5139422;27;20011;-43
2022/05/19 04:55:00;;;;;;;3.95;2.20;;;25.80;53.90;;;;;;5139582;27;20380;-39
2022/05/19 04:57:27;;;;;;;3.22;1.95;;;25.80;53.60;;;;;;5139462;27;20019;-38
2022/05/19 04:59:53;;;;;;;2.97;1.90;;;25.80;53.60;;;;;;5140037;27;20037;-38
2022/05/19 05:02:20;;;;;;;6.72;1.98;;;25.80;53.70;;;;;;5137827;27;20067;-38
2022/05/19 05:04:45;;;;;;;5.18;2.03;;;25.80;53.60;;;;;;5139131;27;20034;-39
2022/05/19 05:07:11;;;;;;;2.20;1.73;;;25.90;53.70;;;;;;5137533;27;20477;-38
2022/05/19 05:09:37;;;;;;;4.38;2.13;;;25.90;53.70;;;;;;5137376;27;20024;-41
2022/05/19 05:12:04;;;;;;;4.18;2.10;;;25.70;54.80;;;;;;5139167;27;20028;-38
2022/05/19 05:14:30;;;;;;;3.50;2.55;;;25.40;55.70;;;;;;5120014;27;20023;-38
2022/05/19 05:16:56;;;;;;;3.33;1.80;;;24.80;57.90;;;;;;5119049;28;20023;-41
2022/05/19 05:19:22;;;;;;;5.63;2.30;;;24.50;59.00;;;;;;5137815;28;20047;-39
2022/05/19 05:21:50;;;;;;;3.78;2.17;;;24.60;59.00;;;;;;5138981;27;20028;-40
2022/05/19 05:24:17;;;;;;;4.30;2.30;;;24.80;58.70;;;;;;5138164;27;20102;-40
2022/05/19 05:26:43;;;;;;;4.13;2.15;;;25.00;58.20;;;;;;5137842;27;20062;-38
2022/05/19 05:29:08;;;;;;;5.88;2.45;;;25.00;57.80;;;;;;5136790;28;20011;-37
2022/05/19 05:31:34;;;;;;;4.38;2.25;;;24.80;58.60;;;;;;5136057;28;20053;-37
2022/05/19 05:34:00;;;;;;;5.53;2.15;;;24.50;59.40;;;;;;5138087;27;20045;-39
2022/05/19 05:36:27;;;;;;;4.00;2.25;;;24.40;60.20;;;;;;5137861;28;20015;-38
2022/05/19 05:38:53;;;;;;;4.72;2.47;;;24.30;60.50;;;;;;5137133;28;20019;-38
2022/05/19 05:41:19;;;;;;;5.80;2.53;;;24.20;61.00;;;;;;5137795;28;20201;-39
2022/05/19 05:43:44;;;;;;;5.32;2.17;;;24.10;61.20;;;;;;5138393;27;20045;-38
2022/05/19 05:46:14;;;;;;;5.93;2.40;;;24.20;61.20;;;;;;5138572;28;20015;-42
2022/05/19 05:48:39;;;;;;;6.90;2.40;;;24.20;61.00;;;;;;5138694;27;20094;-46
2022/05/19 05:51:06;;;;;;;3.30;2.13;;;24.40;60.50;;;;;;5135540;28;20047;-39
2022/05/19 05:53:32;;;;;;;4.05;2.22;;;24.50;59.90;;;;;;5136848;27;20072;-39
2022/05/19 05:55:58;;;;;;;4.57;2.20;;;24.70;59.40;;;;;;5136544;27;20079;-39
2022/05/19 05:58:23;;;;;;;3.92;2.20;;;24.80;59.20;;;;;;5133422;28;20102;-38
2022/05/19 06:00:50;;;;;;;4.75;2.50;;;25.00;58.50;;;;;;5134990;27;20057;-39
2022/05/19 06:03:16;;;;;;;4.78;2.83;;;25.10;58.20;;;;;;5134533;28;20084;-39
2022/05/19 06:05:42;;;;;;;4.90;2.28;;;25.20;57.90;;;;;;5133344;28;20099;-39
2022/05/19 06:08:09;;;;;;;5.65;3.42;;;25.40;57.70;;;;;;5133960;28;20011;-39
2022/05/19 06:10:35;;;;;;;4.57;2.75;;;25.50;57.40;;;;;;5134634;28;20099;-39
2022/05/19 06:13:01;;;;;;;4.70;2.55;;;25.60;57.20;;;;;;5132777;27;20493;-38
2022/05/19 06:15:27;;;;;;;4.05;2.70;;;25.60;57.30;;;;;;5134615;28;20026;-38
2022/05/19 06:17:53;;;;;;;5.63;2.50;;;25.70;57.00;;;;;;5133184;28;20103;-39
2022/05/19 06:20:19;;;;;;;7.53;2.60;;;25.80;56.80;;;;;;5130302;28;20094;-39
2022/05/19 06:22:46;;;;;;;4.80;2.70;;;25.80;56.60;;;;;;5129663;28;20525;-38
2022/05/19 06:25:13;;;;;;;9.98;3.10;;;25.70;56.60;;;;;;5131193;28;20013;-39
2022/05/19 06:27:39;;;;;;;8.02;3.20;;;25.50;57.80;;;;;;5135549;27;20068;-40
2022/05/19 06:30:07;;;;;;;5.05;2.65;;;25.50;58.20;;;;;;5137902;27;20036;-39
2022/05/19 06:32:34;;;;;;;7.43;3.13;;;25.50;58.30;;;;;;5120017;27;20010;-39
2022/05/19 06:35:00;;;;;;;7.65;2.70;;;25.00;59.10;;;;;;5137489;27;20034;-39
2022/05/19 06:37:26;;;;;;;5.32;2.30;;;24.80;59.90;;;;;;5119349;27;20023;-39
2022/05/19 06:39:52;;;;;;;5.20;2.78;;;25.00;59.40;;;;;;5136607;27;20019;-39
2022/05/19 06:42:18;;;;;;;5.63;3.00;;;25.20;59.10;;;;;;5101742;27;20015;-39
2022/05/19 06:44:44;;;;;;;5.53;2.70;;;25.00;59.30;;;;;;5135756;27;20094;-40
2022/05/19 06:47:14;;;;;;;6.10;2.70;;;25.10;59.00;;;;;;5136107;27;20489;-37
2022/05/19 06:49:41;;;;;;;9.73;3.35;;;25.10;59.00;;;;;;5136622;27;20465;-38
2022/05/19 06:52:10;;;;;;;7.82;3.25;;;24.80;59.80;;;;;;5135574;27;20043;-38
2022/05/19 06:54:36;;;;;;;5.22;3.28;;;24.60;60.80;;;;;;5135179;27;20036;-37
2022/05/19 06:57:02;;;;;;;5.25;3.17;;;24.60;61.00;;;;;;5136731;27;20095;-39
2022/05/19 06:59:27;;;;;;;6.20;3.40;;;24.40;60.80;;;;;;5137086;27;20072;-40
2022/05/19 07:01:53;;;;;;;6.88;3.00;;;24.40;61.10;;;;;;5135308;27;20022;-38
2022/05/19 07:04:19;;;;;;;7.55;3.20;;;24.50;60.90;;;;;;5137013;27;20012;-40
2022/05/19 07:06:45;;;;;;;8.35;3.00;;;24.50;61.00;;;;;;5136425;27;20521;-38
2022/05/19 07:09:11;;;;;;;9.30;3.30;;;24.60;61.30;;;;;;5135685;27;20015;-42
2022/05/19 07:11:37;;;;;;;8.80;3.38;;;24.70;60.90;;;;;;5136755;27;20469;-38
2022/05/19 07:14:04;;;;;;;8.13;2.97;;;24.80;60.10;;;;;;5135480;27;20018;-39
2022/05/19 07:16:30;;;;;;;6.32;3.13;;;24.70;60.40;;;;;;5136331;27;20119;-40
2022/05/19 07:20:43;;;;;;;7.88;2.70;;;24.90;59.50;;;;;;5136680;27;20015;-39
2022/05/19 07:21:42;;;;;;;6.50;3.10;;;25.10;58.90;;;;;;5136061;27;20149;-38
2022/05/19 07:24:19;;;;;;;7.18;3.13;;;25.20;58.50;;;;;;5134977;27;20019;-38
2022/05/19 07:26:48;;;;;;;7.78;2.95;;;25.10;58.60;;;;;;5136460;27;20019;-44
2022/05/19 07:29:14;;;;;;;5.43;2.70;;;25.10;58.80;;;;;;5135906;27;20027;-38
2022/05/19 07:31:40;;;;;;;7.90;2.42;;;25.20;58.20;;;;;;5136495;27;20010;-43
2022/05/19 07:34:07;;;;;;;5.97;2.60;;;25.50;57.70;;;;;;5137497;27;20035;-39
2022/05/19 07:36:33;;;;;;;6.07;2.30;;;25.60;57.20;;;;;;5134713;27;20465;-38
2022/05/19 07:39:01;;;;;;;5.20;2.70;;;25.70;57.10;;;;;;5116558;27;20019;-39
2022/05/19 07:41:28;;;;;;;7.50;2.70;;;25.80;57.20;;;;;;5136766;27;20004;-39
2022/05/19 07:43:54;;;;;;;6.15;2.83;;;25.80;57.20;;;;;;5134267;27;20476;-38
2022/05/19 07:46:19;;;;;;;6.15;3.20;;;25.80;57.50;;;;;;5135684;27;20011;-38
2022/05/19 07:48:45;;;;;;;7.78;3.03;;;25.70;57.40;;;;;;5135592;27;20469;-40
2022/05/19 07:51:12;;;;;;;7.90;3.10;;;25.90;57.50;;;;;;5135785;27;20019;-40
2022/05/19 07:53:37;;;;;;;6.88;3.10;;;25.80;57.60;;;;;;5135793;27;20484;-38
2022/05/19 07:56:06;;;;;;;7.38;3.10;;;25.70;57.90;;;;;;5134076;27;20032;-38
2022/05/19 07:58:32;;;;;;;9.10;3.55;;;25.70;58.00;;;;;;5116995;27;20011;-38
2022/05/19 08:01:00;;;;;;;6.10;2.92;;;25.70;58.10;;;;;;5134620;27;20022;-38
2022/05/19 08:03:26;;;;;;;5.35;3.15;;;25.60;58.20;;;;;;5132517;27;20037;-38
2022/05/19 08:05:54;;;;;;;7.85;3.03;;;25.70;58.10;;;;;;5132877;27;20098;-38
2022/05/19 08:08:20;;;;;;;6.43;3.03;;;25.70;57.80;;;;;;5132061;27;20076;-38
2022/05/19 08:10:46;;;;;;;5.63;2.92;;;25.90;57.70;;;;;;5133294;27;20114;-39
2022/05/19 08:15:57;;;;;;;7.85;3.50;;;25.50;58.70;;;;;;5133606;27;20046;-39
2022/05/19 08:18:24;;;;;;;9.48;3.30;;;25.50;59.70;;;;;;5131532;27;20106;-38
2022/05/19 08:20:53;;;;;;;14.40;4.00;;;25.40;60.00;;;;;;5132094;27;20499;-39
2022/05/19 08:23:25;;;;;;;9.30;3.78;;;25.40;60.90;;;;;;5132580;27;20007;-39
2022/05/19 08:25:52;;;;;;;8.07;3.50;;;25.50;60.40;;;;;;5134734;27;20107;-38
2022/05/19 08:28:18;;;;;;;9.35;3.42;;;25.70;60.00;;;;;;5132982;27;20465;-38
2022/05/19 08:30:47;;;;;;;7.82;3.47;;;25.90;59.60;;;;;;5134570;27;20079;-38
2022/05/19 08:33:15;;;;;;;7.15;3.42;;;26.10;59.10;;;;;;5133324;27;20465;-39
2022/05/19 08:35:41;;;;;;;10.27;3.33;;;26.30;59.20;;;;;;5133292;27;20076;-39
2022/05/19 08:38:07;;;;;;;8.18;2.80;;;26.40;58.70;;;;;;5133557;27;20030;-38
2022/05/19 08:41:04;;;;;;;7.82;3.00;;;26.50;58.30;;;;;;5134719;27;20019;-40
2022/05/19 08:43:37;;;;;;;8.13;3.25;;;26.70;58.00;;;;;;5134520;27;20381;-37
2022/05/19 08:46:05;;;;;;;9.88;3.40;;;26.70;57.80;;;;;;5134269;27;20548;-38
2022/05/19 08:48:32;;;;;;;8.52;3.72;;;26.70;57.50;;;;;;5116728;27;20030;-38
2022/05/19 08:51:00;;;;;;;9.25;3.60;;;26.90;56.70;;;;;;5133187;27;20016;-38
2022/05/19 08:53:31;;;;;;;8.38;3.00;;;26.90;56.30;;;;;;5132769;27;20011;-39
2022/05/19 08:56:00;;;;;;;8.75;3.40;;;27.10;55.90;;;;;;5133869;27;20027;-39
2022/05/19 08:58:35;;;;;;;8.15;3.00;;;27.10;55.40;;;;;;5134071;27;20038;-39
2022/05/19 09:01:14;;;;;;;9.98;3.00;;;27.20;55.20;;;;;;5132656;27;20016;-39
2022/05/19 09:03:51;;;;;;;7.88;3.00;;;27.30;55.60;;;;;;5132659;27;20015;-39
2022/05/19 09:06:36;;;;;;;8.95;3.25;;;27.50;55.00;;;;;;5133391;27;20040;-39
2022/05/19 09:09:21;;;;;;;8.52;2.90;;;27.50;54.80;;;;;;5132768;27;20028;-39
2022/05/19 09:11:55;;;;;;;11.13;2.90;;;27.60;54.80;;;;;;5133011;27;20043;-40
2022/05/19 09:14:32;;;;;;;19.23;3.65;;;27.60;54.50;;;;;;5133925;27;20441;-40
2022/05/19 09:17:03;;;;;;;14.63;3.50;;;27.40;55.30;;;;;;5132326;27;20515;-42
2022/05/19 09:19:43;;;;;;;17.77;5.15;;;27.40;54.70;;;;;;5132445;28;20019;-40
2022/05/19 09:22:11;;;;;;;12.27;4.32;;;27.50;54.90;;;;;;5132537;28;20040;-41
2022/05/19 09:24:37;;;;;;;20.63;3.72;;;27.60;54.40;;;;;;5134219;27;20015;-42
2022/05/19 09:27:04;;;;;;;17.92;3.90;;;27.70;54.40;;;;;;5133968;28;20027;-40
2022/05/19 09:29:40;;;;;;;15.75;3.60;;;27.60;53.70;;;;;;5133774;27;20007;-40
2022/05/19 09:32:17;;;;;;;11.98;3.60;;;27.20;55.20;;;;;;5133482;27;20030;-40
2022/05/19 09:34:47;;;;;;;17.83;3.97;;;27.40;55.10;;;;;;5132377;28;20019;-40
2022/05/19 09:37:14;;;;;;;10.00;3.67;;;27.60;54.70;;;;;;5134170;27;20037;-40
2022/05/19 09:39:49;;;;;;;9.15;3.78;;;27.60;54.60;;;;;;5132897;28;20012;-40
2022/05/19 09:42:20;;;;;;;16.23;10.82;;;27.20;55.50;;;;;;5134565;27;20024;-41
2022/05/19 09:44:56;;;;;;;14.18;10.70;;;27.50;55.70;;;;;;5134036;27;20011;-40
2022/05/19 09:47:33;;;;;;;20.08;8.60;;;28.40;53.80;;;;;;5132595;28;20016;-40
2022/05/19 09:50:06;;;;;;;12.45;7.05;;;28.60;52.00;;;;;;5133291;27;20020;-39
2022/05/19 09:52:33;;;;;;;11.98;5.30;;;28.60;51.90;;;;;;5132667;28;20039;-41
2022/05/19 09:55:04;;;;;;;8.63;5.07;;;28.30;52.40;;;;;;5133812;27;20094;-40
2022/05/19 09:57:42;;;;;;;14.23;5.38;;;27.80;53.80;;;;;;5133315;27;20060;-42
2022/05/19 10:00:23;;;;;;;20.83;5.32;;;27.90;53.80;;;;;;5132608;28;20007;-45
2022/05/19 10:02:50;;;;;;;17.65;6.50;;;27.20;55.10;;;;;;5137877;27;20027;-42
2022/05/19 10:05:42;;;;;;;15.82;5.47;;;27.10;55.10;;;;;;5139119;27;20007;-43
2022/05/19 10:08:15;;;;;;;13.32;5.95;;;27.20;54.60;;;;;;5135939;27;20114;-42
2022/05/19 10:11:03;;;;;;;14.13;6.18;;;27.30;54.60;;;;;;5140493;27;20011;-41
2022/05/19 10:13:51;;;;;;;14.02;7.53;;;27.20;54.60;;;;;;5138973;27;20103;-43
2022/05/19 10:17:02;;;;;;;15.13;6.78;;;27.30;54.90;;;;;;5139540;27;20027;-41
2022/05/19 10:19:41;;;;;;;17.58;6.35;;;27.10;55.70;;;;;;5055468;28;20024;-42
2022/05/19 10:22:45;;;;;;;16.17;6.10;;;26.90;56.90;;;;;;5039583;28;20068;-42
2022/05/19 10:25:28;;;;;;;19.02;8.02;;;26.70;58.00;;;;;;5039860;28;20025;-45
2022/05/19 10:31:04;;;;;;;25.98;11.07;;;26.70;57.60;;;;;;5055661;28;20028;-43
2022/05/19 10:34:12;;;;;;;15.32;7.47;;;26.80;57.40;;;;;;5054976;28;20067;-42
2022/05/19 10:36:59;;;;;;;15.30;7.05;;;26.90;57.20;;;;;;5047048;28;20127;-45
2022/05/19 10:39:50;;;;;;;17.77;7.13;;;26.90;57.10;;;;;;5037957;28;20045;-42
2022/05/19 10:42:29;;;;;;;18.33;7.80;;;26.90;57.00;;;;;;5041414;28;20036;-41
2022/05/19 10:45:23;;;;;;;18.80;8.95;;;26.80;56.90;;;;;;5053405;28;20108;-42
2022/05/19 10:48:12;;;;;;;17.63;7.53;;;26.80;57.30;;;;;;5030113;28;20033;-42
2022/05/19 10:50:50;;;;;;;19.27;7.60;;;26.80;57.30;;;;;;5111933;27;20084;-41
2022/05/19 10:53:29;;;;;;;29.23;9.68;;;26.60;58.80;;;;;;5134117;27;20064;-38
2022/05/19 10:56:04;;;;;;;18.43;6.47;;;26.70;60.90;;;;;;5134236;27;20023;-40
2022/05/19 10:58:49;;;;;;;19.35;5.55;;;26.00;63.20;;;;;;5135601;27;20015;-40
2022/05/19 11:01:30;;;;;;;16.13;5.15;;;25.80;65.50;;;;;;5117664;27;20045;-42
2022/05/19 11:04:14;;;;;;;12.13;4.68;;;25.60;65.50;;;;;;5134945;27;20156;-40
2022/05/19 11:07:05;;;;;;;13.07;4.20;;;25.20;66.60;;;;;;5135721;27;20199;-39
2022/05/19 11:09:37;;;;;;;15.02;4.00;;;25.10;66.90;;;;;;5134963;27;20071;-39
2022/05/19 11:12:18;;;;;;;10.35;4.30;;;25.00;67.00;;;;;;5133419;27;20011;-40
2022/05/19 11:14:49;;;;;;;10.68;3.88;;;25.00;67.30;;;;;;5133573;27;20163;-38
2022/05/19 11:17:27;;;;;;;15.05;4.10;;;25.10;66.10;;;;;;5134103;27;20095;-40
2022/05/19 11:20:01;;;;;;;12.93;3.92;;;25.20;65.60;;;;;;5134383;27;20072;-40
2022/05/19 11:22:30;;;;;;;10.90;4.13;;;25.30;66.10;;;;;;5134228;27;20489;-39
2022/05/19 11:27:55;;;;;;;12.20;4.00;;;25.20;66.20;;;;;;5134223;27;20437;-40
2022/05/19 11:30:24;;;;;;;9.80;4.30;;;25.10;66.00;;;;;;5132899;27;20064;-39
2022/05/19 11:32:53;;;;;;;11.05;4.40;;;25.10;64.80;;;;;;5133031;27;20022;-39
2022/05/19 11:35:23;;;;;;;13.80;4.70;;;25.00;64.90;;;;;;5134855;27;20029;-40
2022/05/19 11:37:53;;;;;;;12.50;4.47;;;24.80;65.90;;;;;;5132318;27;20031;-40
2022/05/19 11:40:22;;;;;;;13.35;4.60;;;24.90;65.40;;;;;;5134393;27;20068;-40
2022/05/19 11:43:20;;;;;;;17.85;5.50;;;24.90;65.90;;;;;;5133018;27;20026;-40
2022/05/19 11:45:58;;;;;;;11.35;4.53;;;25.10;66.90;;;;;;5123900;27;20060;-40
2022/05/19 11:57:58;;;;;;;7.45;3.35;;;25.00;62.90;;;;;;5135162;27;20123;-40
2022/05/19 12:00:26;;;;;;;7.15;2.95;;;25.40;61.90;;;;;;5135534;27;20549;-39
2022/05/19 12:02:57;;;;;;;7.85;3.17;;;25.80;60.90;;;;;;5134334;27;20016;-40
2022/05/19 12:05:29;;;;;;;8.77;3.00;;;26.00;60.40;;;;;;5134442;27;20095;-39
2022/05/19 12:07:56;;;;;;;5.65;2.67;;;26.20;59.90;;;;;;5133904;27;20011;-40
2022/05/19 12:10:50;;;;;;;4.07;2.47;;;26.40;59.70;;;;;;5133642;27;20019;-40
2022/05/19 12:13:19;;;;;;;7.07;2.50;;;26.60;59.20;;;;;;5133567;27;20035;-40
2022/05/19 12:15:59;;;;;;;7.57;2.90;;;26.70;59.20;;;;;;5133570;27;20019;-40
2022/05/19 12:18:27;;;;;;;5.13;2.72;;;26.80;58.90;;;;;;5116996;27;20007;-41
2022/05/19 12:21:03;;;;;;;8.85;2.50;;;26.90;58.90;;;;;;5135267;27;20065;-40
2022/05/19 12:23:38;;;;;;;6.72;2.55;;;26.90;58.90;;;;;;5133415;27;20450;-40
2022/05/19 12:26:17;;;;;;;5.07;2.03;;;27.00;58.80;;;;;;5115711;27;20111;-40
2022/05/19 12:29:02;;;;;;;3.30;2.15;;;27.00;58.70;;;;;;5133579;27;20090;-42
2022/05/19 12:34:19;;;;;;;6.18;2.10;;;26.60;58.30;;;;;;5132513;27;20026;-40
2022/05/19 12:36:50;;;;;;;3.88;1.90;;;26.50;57.90;;;;;;5115447;27;20027;-41
2022/05/19 12:39:16;;;;;;;5.60;2.22;;;26.40;57.90;;;;;;5133347;27;20015;-40
2022/05/19 12:41:50;;;;;;;4.57;1.70;;;26.40;57.20;;;;;;5134112;27;20381;-43
2022/05/19 12:44:29;;;;;;;10.65;2.50;;;26.40;57.50;;;;;;5134288;27;20012;-38
2022/05/19 12:47:10;;;;;;;5.82;2.30;;;26.50;57.50;;;;;;5099558;27;20482;-40
2022/05/19 12:49:36;;;;;;;4.70;2.10;;;26.50;57.20;;;;;;5134710;27;20019;-41
2022/05/19 12:52:25;;;;;;;7.60;2.00;;;26.50;56.90;;;;;;5135355;27;20043;-40
2022/05/19 12:55:27;;;;;;;5.40;2.00;;;26.60;56.90;;;;;;5133275;27;20015;-41
2022/05/19 12:57:57;;;;;;;4.78;2.10;;;26.60;57.00;;;;;;5133841;27;20023;-41
2022/05/19 13:00:25;;;;;;;3.70;1.63;;;26.60;56.70;;;;;;5116136;27;20015;-41
2022/05/19 13:03:00;;;;;;;3.05;1.60;;;26.60;55.60;;;;;;5134283;27;20415;-41
2022/05/19 13:05:33;;;;;;;3.33;1.80;;;26.60;56.00;;;;;;5132581;27;20048;-41
2022/05/19 13:08:10;;;;;;;2.78;1.70;;;26.60;55.80;;;;;;5133698;27;20016;-40
2022/05/19 13:10:41;;;;;;;2.10;1.67;;;26.60;56.00;;;;;;5132448;27;20023;-43
2022/05/19 13:13:36;;;;;;;3.25;1.92;;;26.60;55.90;;;;;;5133808;27;20010;-41
2022/05/19 13:16:25;;;;;;;3.95;1.70;;;26.70;55.90;;;;;;5133374;27;20023;-41
2022/05/19 13:18:59;;;;;;;4.78;2.03;;;26.70;55.90;;;;;;5133898;27;20045;-41
2022/05/19 13:21:34;;;;;;;4.68;1.80;;;26.70;55.90;;;;;;5132727;28;20056;-41
2022/05/19 13:24:06;;;;;;;4.57;1.80;;;26.70;55.90;;;;;;5134992;27;20019;-41
2022/05/19 13:26:33;;;;;;;4.05;1.60;;;26.70;55.80;;;;;;5118618;28;20030;-41